Aviation Digital Data Service (ADDS)

Output produced by METARs form (2155 UTC 24 March 2017)
found at http://aviationweather.gov/adds/metars/
 
KINT 242153Z 2422/2518 22009G16KT P6SM FEW050 SCT250 
     FM250000 23007KT P6SM SCT250 
     TEMPO 2510/2513 BKN025 
     FM251500 23012G19KT P6SM SCT035 BKN200